EGLC - London City Airport
Distance from station: E 5mi, 14km
Updated: 01/18/2018 1:20am
Clear
Clear
 Wind from W
Wind: W 22 mph , 35 km/h, Gust: 35 mph , 56 km/h
Temperature: 45°F , 7°C
Wind Chill: 37°F , 3°C
Dew Point: 34°F , 1°C
Humidity: 66%
Barometer: 29.56 inHg , 1001 hPa
Clouds: Clear
Visibility: 6 miles , 10 km
2018/01/18 09:20 EGLC 180920Z AUTO 27019G30KT 240V300 9999 NCD 07/01 Q1001